sensor_id;sensor_type;location;lat;lon;timestamp;P1;durP1;ratioP1;P2;durP2;ratioP2
52284;SDS011;38238;53.304;6.606;2022-10-16T00:00:57;6.00;;;2.58;;
52284;SDS011;38238;53.304;6.606;2022-10-16T00:03:22;6.03;;;2.50;;
52284;SDS011;38238;53.304;6.606;2022-10-16T00:05:48;6.78;;;2.67;;
52284;SDS011;38238;53.304;6.606;2022-10-16T00:08:14;10.90;;;2.90;;
52284;SDS011;38238;53.304;6.606;2022-10-16T00:10:39;5.55;;;2.58;;
52284;SDS011;38238;53.304;6.606;2022-10-16T00:13:06;9.68;;;2.97;;
52284;SDS011;38238;53.304;6.606;2022-10-16T00:15:36;9.18;;;2.50;;
52284;SDS011;38238;53.304;6.606;2022-10-16T00:18:03;7.88;;;2.30;;
52284;SDS011;38238;53.304;6.606;2022-10-16T00:20:29;4.50;;;2.15;;
52284;SDS011;38238;53.304;6.606;2022-10-16T00:22:56;8.45;;;2.92;;
52284;SDS011;38238;53.304;6.606;2022-10-16T00:25:22;6.03;;;2.30;;
52284;SDS011;38238;53.304;6.606;2022-10-16T00:27:48;6.03;;;2.20;;
52284;SDS011;38238;53.304;6.606;2022-10-16T00:30:14;7.13;;;2.80;;
52284;SDS011;38238;53.304;6.606;2022-10-16T00:32:39;8.30;;;2.30;;
52284;SDS011;38238;53.304;6.606;2022-10-16T00:35:05;5.00;;;1.98;;
52284;SDS011;38238;53.304;6.606;2022-10-16T00:37:31;5.90;;;2.17;;
52284;SDS011;38238;53.304;6.606;2022-10-16T00:39:57;5.97;;;2.60;;
52284;SDS011;38238;53.304;6.606;2022-10-16T00:42:22;5.18;;;2.05;;
52284;SDS011;38238;53.304;6.606;2022-10-16T00:44:49;7.10;;;2.28;;
52284;SDS011;38238;53.304;6.606;2022-10-16T00:50:11;6.07;;;2.65;;
52284;SDS011;38238;53.304;6.606;2022-10-16T00:52:51;7.60;;;2.20;;
52284;SDS011;38238;53.304;6.606;2022-10-16T00:55:18;4.97;;;2.28;;
52284;SDS011;38238;53.304;6.606;2022-10-16T00:57:46;4.90;;;2.47;;
52284;SDS011;38238;53.304;6.606;2022-10-16T01:00:14;6.10;;;2.22;;
52284;SDS011;38238;53.304;6.606;2022-10-16T01:02:42;5.65;;;2.80;;
52284;SDS011;38238;53.304;6.606;2022-10-16T01:05:08;4.63;;;2.30;;
52284;SDS011;38238;53.304;6.606;2022-10-16T01:07:45;4.88;;;2.20;;
52284;SDS011;38238;53.304;6.606;2022-10-16T01:13:07;5.93;;;2.40;;
52284;SDS011;38238;53.304;6.606;2022-10-16T01:18:39;4.05;;;2.00;;
52284;SDS011;38238;53.304;6.606;2022-10-16T01:21:12;5.28;;;2.00;;
52284;SDS011;38238;53.304;6.606;2022-10-16T01:24:54;7.03;;;1.85;;
52284;SDS011;38238;53.304;6.606;2022-10-16T01:29:34;5.80;;;2.03;;
52284;SDS011;38238;53.304;6.606;2022-10-16T01:32:33;6.85;;;2.40;;
52284;SDS011;38238;53.304;6.606;2022-10-16T01:35:02;4.57;;;1.90;;
52284;SDS011;38238;53.304;6.606;2022-10-16T01:37:43;4.85;;;2.30;;
52284;SDS011;38238;53.304;6.606;2022-10-16T01:40:14;3.67;;;1.73;;
52284;SDS011;38238;53.304;6.606;2022-10-16T01:42:48;5.70;;;2.00;;
52284;SDS011;38238;53.304;6.606;2022-10-16T01:45:18;5.35;;;1.80;;
52284;SDS011;38238;53.304;6.606;2022-10-16T01:47:45;5.97;;;2.28;;
52284;SDS011;38238;53.304;6.606;2022-10-16T01:50:12;9.00;;;2.35;;
52284;SDS011;38238;53.304;6.606;2022-10-16T01:52:42;5.40;;;2.40;;
52284;SDS011;38238;53.304;6.606;2022-10-16T01:55:11;4.90;;;1.83;;
52284;SDS011;38238;53.304;6.606;2022-10-16T01:57:40;4.22;;;1.85;;
52284;SDS011;38238;53.304;6.606;2022-10-16T02:00:10;4.13;;;1.65;;
52284;SDS011;38238;53.304;6.606;2022-10-16T02:02:42;4.45;;;1.85;;
52284;SDS011;38238;53.304;6.606;2022-10-16T02:05:18;3.78;;;1.90;;
52284;SDS011;38238;53.304;6.606;2022-10-16T02:07:45;5.13;;;1.80;;
52284;SDS011;38238;53.304;6.606;2022-10-16T02:10:11;5.32;;;2.10;;
52284;SDS011;38238;53.304;6.606;2022-10-16T02:12:37;4.65;;;2.10;;
52284;SDS011;38238;53.304;6.606;2022-10-16T02:15:08;4.93;;;2.17;;
52284;SDS011;38238;53.304;6.606;2022-10-16T02:17:34;6.15;;;2.22;;
52284;SDS011;38238;53.304;6.606;2022-10-16T02:20:00;7.07;;;1.67;;
52284;SDS011;38238;53.304;6.606;2022-10-16T02:22:36;4.00;;;2.20;;
52284;SDS011;38238;53.304;6.606;2022-10-16T02:25:14;7.70;;;2.42;;
52284;SDS011;38238;53.304;6.606;2022-10-16T02:33:17;7.22;;;2.28;;
52284;SDS011;38238;53.304;6.606;2022-10-16T02:35:45;4.63;;;2.00;;
52284;SDS011;38238;53.304;6.606;2022-10-16T02:38:13;6.20;;;2.20;;
52284;SDS011;38238;53.304;6.606;2022-10-16T02:40:40;5.40;;;1.88;;
52284;SDS011;38238;53.304;6.606;2022-10-16T02:43:06;3.88;;;1.80;;
52284;SDS011;38238;53.304;6.606;2022-10-16T02:45:32;5.05;;;2.08;;
52284;SDS011;38238;53.304;6.606;2022-10-16T02:47:58;4.03;;;2.08;;
52284;SDS011;38238;53.304;6.606;2022-10-16T02:50:24;5.55;;;1.98;;
52284;SDS011;38238;53.304;6.606;2022-10-16T02:52:50;7.93;;;2.20;;
52284;SDS011;38238;53.304;6.606;2022-10-16T02:55:16;3.75;;;2.00;;
52284;SDS011;38238;53.304;6.606;2022-10-16T02:57:41;4.03;;;2.00;;
52284;SDS011;38238;53.304;6.606;2022-10-16T03:00:08;3.63;;;1.80;;
52284;SDS011;38238;53.304;6.606;2022-10-16T03:02:36;3.92;;;1.95;;
52284;SDS011;38238;53.304;6.606;2022-10-16T03:05:02;8.05;;;2.05;;
52284;SDS011;38238;53.304;6.606;2022-10-16T03:07:28;8.10;;;2.05;;
52284;SDS011;38238;53.304;6.606;2022-10-16T03:09:53;4.75;;;1.90;;
52284;SDS011;38238;53.304;6.606;2022-10-16T03:12:20;5.50;;;2.03;;
52284;SDS011;38238;53.304;6.606;2022-10-16T03:14:46;4.53;;;1.90;;
52284;SDS011;38238;53.304;6.606;2022-10-16T03:17:12;6.38;;;1.73;;
52284;SDS011;38238;53.304;6.606;2022-10-16T03:19:38;5.07;;;1.80;;
52284;SDS011;38238;53.304;6.606;2022-10-16T03:22:04;4.47;;;1.65;;
52284;SDS011;38238;53.304;6.606;2022-10-16T03:24:30;6.05;;;1.95;;
52284;SDS011;38238;53.304;6.606;2022-10-16T03:26:56;4.85;;;2.08;;
52284;SDS011;38238;53.304;6.606;2022-10-16T03:29:22;6.72;;;2.38;;
52284;SDS011;38238;53.304;6.606;2022-10-16T03:31:47;3.90;;;1.90;;
52284;SDS011;38238;53.304;6.606;2022-10-16T03:34:14;5.95;;;1.88;;
52284;SDS011;38238;53.304;6.606;2022-10-16T03:36:40;3.47;;;1.60;;
52284;SDS011;38238;53.304;6.606;2022-10-16T03:39:06;4.25;;;1.90;;
52284;SDS011;38238;53.304;6.606;2022-10-16T03:41:31;5.88;;;2.03;;
52284;SDS011;38238;53.304;6.606;2022-10-16T03:43:57;4.78;;;1.98;;
52284;SDS011;38238;53.304;6.606;2022-10-16T03:46:23;5.43;;;1.65;;
52284;SDS011;38238;53.304;6.606;2022-10-16T03:48:49;4.20;;;1.90;;
52284;SDS011;38238;53.304;6.606;2022-10-16T03:51:14;3.17;;;1.70;;
52284;SDS011;38238;53.304;6.606;2022-10-16T03:53:40;3.38;;;1.92;;
52284;SDS011;38238;53.304;6.606;2022-10-16T03:56:06;4.32;;;2.17;;
52284;SDS011;38238;53.304;6.606;2022-10-16T03:58:32;4.20;;;1.80;;
52284;SDS011;38238;53.304;6.606;2022-10-16T04:00:57;5.43;;;1.80;;
52284;SDS011;38238;53.304;6.606;2022-10-16T04:03:23;2.80;;;1.67;;
52284;SDS011;38238;53.304;6.606;2022-10-16T04:05:49;4.57;;;2.08;;
52284;SDS011;38238;53.304;6.606;2022-10-16T04:08:15;5.25;;;2.00;;
52284;SDS011;38238;53.304;6.606;2022-10-16T04:10:42;3.38;;;1.80;;
52284;SDS011;38238;53.304;6.606;2022-10-16T04:13:08;3.28;;;1.85;;
52284;SDS011;38238;53.304;6.606;2022-10-16T04:15:34;6.10;;;1.77;;
52284;SDS011;38238;53.304;6.606;2022-10-16T04:18:00;3.80;;;2.00;;
52284;SDS011;38238;53.304;6.606;2022-10-16T04:20:25;4.05;;;1.95;;
52284;SDS011;38238;53.304;6.606;2022-10-16T04:22:51;4.80;;;1.90;;
52284;SDS011;38238;53.304;6.606;2022-10-16T04:25:17;3.67;;;2.20;;
52284;SDS011;38238;53.304;6.606;2022-10-16T04:27:43;2.58;;;1.55;;
52284;SDS011;38238;53.304;6.606;2022-10-16T04:30:08;3.92;;;1.90;;
52284;SDS011;38238;53.304;6.606;2022-10-16T04:32:34;4.30;;;1.77;;
52284;SDS011;38238;53.304;6.606;2022-10-16T04:35:00;4.00;;;1.85;;
52284;SDS011;38238;53.304;6.606;2022-10-16T04:37:26;3.78;;;1.73;;
52284;SDS011;38238;53.304;6.606;2022-10-16T04:39:52;3.88;;;1.90;;
52284;SDS011;38238;53.304;6.606;2022-10-16T04:42:18;4.50;;;1.75;;
52284;SDS011;38238;53.304;6.606;2022-10-16T04:44:45;5.63;;;2.00;;
52284;SDS011;38238;53.304;6.606;2022-10-16T04:47:10;5.47;;;2.20;;
52284;SDS011;38238;53.304;6.606;2022-10-16T04:49:36;7.78;;;1.85;;
52284;SDS011;38238;53.304;6.606;2022-10-16T04:52:02;6.63;;;2.15;;
52284;SDS011;38238;53.304;6.606;2022-10-16T04:54:28;4.78;;;1.85;;
52284;SDS011;38238;53.304;6.606;2022-10-16T04:56:53;4.57;;;2.10;;
52284;SDS011;38238;53.304;6.606;2022-10-16T04:59:19;3.20;;;1.90;;
52284;SDS011;38238;53.304;6.606;2022-10-16T05:01:45;3.28;;;1.90;;
52284;SDS011;38238;53.304;6.606;2022-10-16T05:04:11;6.05;;;2.00;;
52284;SDS011;38238;53.304;6.606;2022-10-16T05:06:37;4.90;;;2.42;;
52284;SDS011;38238;53.304;6.606;2022-10-16T05:09:06;4.63;;;2.10;;
52284;SDS011;38238;53.304;6.606;2022-10-16T05:11:33;5.80;;;2.72;;
52284;SDS011;38238;53.304;6.606;2022-10-16T05:14:02;5.57;;;2.20;;
52284;SDS011;38238;53.304;6.606;2022-10-16T05:16:28;4.50;;;2.20;;
52284;SDS011;38238;53.304;6.606;2022-10-16T05:18:55;5.55;;;2.03;;
52284;SDS011;38238;53.304;6.606;2022-10-16T05:21:21;5.88;;;2.15;;
52284;SDS011;38238;53.304;6.606;2022-10-16T05:23:47;6.25;;;2.13;;
52284;SDS011;38238;53.304;6.606;2022-10-16T05:26:13;6.43;;;2.20;;
52284;SDS011;38238;53.304;6.606;2022-10-16T05:28:38;5.78;;;2.28;;
52284;SDS011;38238;53.304;6.606;2022-10-16T05:31:05;4.10;;;2.10;;
52284;SDS011;38238;53.304;6.606;2022-10-16T05:33:32;4.57;;;2.50;;
52284;SDS011;38238;53.304;6.606;2022-10-16T05:36:00;5.10;;;2.40;;
52284;SDS011;38238;53.304;6.606;2022-10-16T05:38:28;6.40;;;2.25;;
52284;SDS011;38238;53.304;6.606;2022-10-16T05:40:53;4.32;;;2.05;;
52284;SDS011;38238;53.304;6.606;2022-10-16T05:43:19;4.25;;;2.13;;
52284;SDS011;38238;53.304;6.606;2022-10-16T05:45:53;6.68;;;2.20;;
52284;SDS011;38238;53.304;6.606;2022-10-16T05:48:19;4.00;;;2.15;;
52284;SDS011;38238;53.304;6.606;2022-10-16T05:50:45;5.20;;;2.53;;
52284;SDS011;38238;53.304;6.606;2022-10-16T05:53:11;4.22;;;2.30;;
52284;SDS011;38238;53.304;6.606;2022-10-16T05:55:36;6.55;;;2.20;;
52284;SDS011;38238;53.304;6.606;2022-10-16T05:58:02;4.53;;;2.10;;
52284;SDS011;38238;53.304;6.606;2022-10-16T06:00:28;6.28;;;2.50;;
52284;SDS011;38238;53.304;6.606;2022-10-16T06:02:53;4.18;;;2.15;;
52284;SDS011;38238;53.304;6.606;2022-10-16T06:05:19;4.82;;;2.20;;
52284;SDS011;38238;53.304;6.606;2022-10-16T06:07:45;6.47;;;2.60;;
52284;SDS011;38238;53.304;6.606;2022-10-16T06:10:10;7.00;;;2.55;;
52284;SDS011;38238;53.304;6.606;2022-10-16T06:12:36;4.15;;;2.50;;
52284;SDS011;38238;53.304;6.606;2022-10-16T06:15:02;4.35;;;2.20;;
52284;SDS011;38238;53.304;6.606;2022-10-16T06:17:28;6.47;;;2.55;;
52284;SDS011;38238;53.304;6.606;2022-10-16T06:19:53;6.25;;;2.53;;
52284;SDS011;38238;53.304;6.606;2022-10-16T06:22:19;5.63;;;2.70;;
52284;SDS011;38238;53.304;6.606;2022-10-16T06:24:45;5.38;;;2.70;;
52284;SDS011;38238;53.304;6.606;2022-10-16T06:27:11;5.85;;;2.60;;
52284;SDS011;38238;53.304;6.606;2022-10-16T06:29:37;6.13;;;2.75;;
52284;SDS011;38238;53.304;6.606;2022-10-16T06:32:02;8.52;;;2.90;;
52284;SDS011;38238;53.304;6.606;2022-10-16T06:34:28;6.55;;;2.45;;
52284;SDS011;38238;53.304;6.606;2022-10-16T06:36:54;5.03;;;2.83;;
52284;SDS011;38238;53.304;6.606;2022-10-16T06:39:20;7.10;;;2.70;;
52284;SDS011;38238;53.304;6.606;2022-10-16T06:41:45;7.25;;;3.10;;
52284;SDS011;38238;53.304;6.606;2022-10-16T06:44:11;6.30;;;2.90;;
52284;SDS011;38238;53.304;6.606;2022-10-16T06:46:37;4.75;;;2.83;;
52284;SDS011;38238;53.304;6.606;2022-10-16T06:49:02;5.97;;;3.00;;
52284;SDS011;38238;53.304;6.606;2022-10-16T06:51:28;5.50;;;2.60;;
52284;SDS011;38238;53.304;6.606;2022-10-16T06:53:55;6.28;;;2.85;;
52284;SDS011;38238;53.304;6.606;2022-10-16T06:56:25;4.57;;;2.42;;
52284;SDS011;38238;53.304;6.606;2022-10-16T06:58:52;7.70;;;3.15;;
52284;SDS011;38238;53.304;6.606;2022-10-16T07:01:20;8.18;;;3.03;;
52284;SDS011;38238;53.304;6.606;2022-10-16T07:03:47;6.32;;;2.88;;
52284;SDS011;38238;53.304;6.606;2022-10-16T07:06:14;4.70;;;2.95;;
52284;SDS011;38238;53.304;6.606;2022-10-16T07:08:41;5.65;;;3.30;;
52284;SDS011;38238;53.304;6.606;2022-10-16T07:11:12;7.22;;;2.78;;
52284;SDS011;38238;53.304;6.606;2022-10-16T07:13:41;5.72;;;2.30;;
52284;SDS011;38238;53.304;6.606;2022-10-16T07:16:12;5.70;;;2.80;;
52284;SDS011;38238;53.304;6.606;2022-10-16T07:18:40;7.55;;;2.60;;
52284;SDS011;38238;53.304;6.606;2022-10-16T07:21:18;6.15;;;2.58;;
52284;SDS011;38238;53.304;6.606;2022-10-16T07:23:46;5.18;;;2.45;;
52284;SDS011;38238;53.304;6.606;2022-10-16T07:26:16;6.85;;;3.05;;
52284;SDS011;38238;53.304;6.606;2022-10-16T07:28:42;5.68;;;2.55;;
52284;SDS011;38238;53.304;6.606;2022-10-16T07:31:10;9.57;;;2.70;;
52284;SDS011;38238;53.304;6.606;2022-10-16T07:33:38;5.78;;;2.38;;
52284;SDS011;38238;53.304;6.606;2022-10-16T07:36:05;5.45;;;2.67;;
52284;SDS011;38238;53.304;6.606;2022-10-16T07:38:31;6.05;;;2.40;;
52284;SDS011;38238;53.304;6.606;2022-10-16T07:40:57;7.03;;;2.40;;
52284;SDS011;38238;53.304;6.606;2022-10-16T07:43:25;5.05;;;2.40;;
52284;SDS011;38238;53.304;6.606;2022-10-16T07:45:52;7.45;;;2.58;;
52284;SDS011;38238;53.304;6.606;2022-10-16T07:48:18;6.78;;;3.25;;
52284;SDS011;38238;53.304;6.606;2022-10-16T07:50:44;8.48;;;2.90;;
52284;SDS011;38238;53.304;6.606;2022-10-16T07:53:10;5.72;;;2.40;;
52284;SDS011;38238;53.304;6.606;2022-10-16T07:55:37;6.40;;;2.20;;
52284;SDS011;38238;53.304;6.606;2022-10-16T07:58:02;6.72;;;2.40;;
52284;SDS011;38238;53.304;6.606;2022-10-16T08:00:29;4.55;;;2.40;;
52284;SDS011;38238;53.304;6.606;2022-10-16T08:02:56;5.70;;;2.60;;
52284;SDS011;38238;53.304;6.606;2022-10-16T08:05:28;5.55;;;2.28;;
52284;SDS011;38238;53.304;6.606;2022-10-16T08:07:55;6.15;;;2.90;;
52284;SDS011;38238;53.304;6.606;2022-10-16T08:10:21;5.63;;;3.00;;
52284;SDS011;38238;53.304;6.606;2022-10-16T08:12:49;6.68;;;2.45;;
52284;SDS011;38238;53.304;6.606;2022-10-16T08:15:16;6.78;;;2.33;;
52284;SDS011;38238;53.304;6.606;2022-10-16T08:17:42;5.60;;;2.63;;
52284;SDS011;38238;53.304;6.606;2022-10-16T08:20:08;4.53;;;2.50;;
52284;SDS011;38238;53.304;6.606;2022-10-16T08:22:34;4.72;;;2.92;;
52284;SDS011;38238;53.304;6.606;2022-10-16T08:25:00;4.68;;;2.60;;
52284;SDS011;38238;53.304;6.606;2022-10-16T08:27:30;7.25;;;2.90;;
52284;SDS011;38238;53.304;6.606;2022-10-16T08:29:56;6.90;;;2.70;;
52284;SDS011;38238;53.304;6.606;2022-10-16T08:32:22;9.02;;;2.78;;
52284;SDS011;38238;53.304;6.606;2022-10-16T08:34:48;6.20;;;2.17;;
52284;SDS011;38238;53.304;6.606;2022-10-16T08:37:13;6.22;;;2.80;;
52284;SDS011;38238;53.304;6.606;2022-10-16T08:39:39;6.68;;;2.45;;
52284;SDS011;38238;53.304;6.606;2022-10-16T08:42:29;4.57;;;1.95;;
52284;SDS011;38238;53.304;6.606;2022-10-16T08:45:14;3.70;;;2.08;;
52284;SDS011;38238;53.304;6.606;2022-10-16T08:47:49;4.97;;;2.00;;
52284;SDS011;38238;53.304;6.606;2022-10-16T08:50:30;6.28;;;2.63;;
52284;SDS011;38238;53.304;6.606;2022-10-16T08:53:00;7.50;;;2.85;;
52284;SDS011;38238;53.304;6.606;2022-10-16T08:55:33;6.72;;;3.00;;
52284;SDS011;38238;53.304;6.606;2022-10-16T08:58:09;7.22;;;2.55;;
52284;SDS011;38238;53.304;6.606;2022-10-16T09:00:40;5.22;;;2.13;;
52284;SDS011;38238;53.304;6.606;2022-10-16T09:11:59;6.72;;;2.40;;
52284;SDS011;38238;53.304;6.606;2022-10-16T09:17:36;5.50;;;2.47;;
52284;SDS011;38238;53.304;6.606;2022-10-16T09:25:28;7.53;;;2.72;;
52284;SDS011;38238;53.304;6.606;2022-10-16T09:27:54;7.22;;;2.70;;
52284;SDS011;38238;53.304;6.606;2022-10-16T09:30:21;11.23;;;2.67;;
52284;SDS011;38238;53.304;6.606;2022-10-16T09:32:48;7.70;;;2.67;;
52284;SDS011;38238;53.304;6.606;2022-10-16T09:35:31;12.48;;;3.10;;
52284;SDS011;38238;53.304;6.606;2022-10-16T09:37:57;7.20;;;2.10;;
52284;SDS011;38238;53.304;6.606;2022-10-16T09:40:24;6.55;;;2.70;;
52284;SDS011;38238;53.304;6.606;2022-10-16T09:45:41;8.43;;;2.20;;
52284;SDS011;38238;53.304;6.606;2022-10-16T09:48:11;5.07;;;2.40;;
52284;SDS011;38238;53.304;6.606;2022-10-16T09:50:38;8.15;;;2.97;;
52284;SDS011;38238;53.304;6.606;2022-10-16T09:53:05;7.57;;;2.55;;
52284;SDS011;38238;53.304;6.606;2022-10-16T09:55:47;10.75;;;2.95;;
52284;SDS011;38238;53.304;6.606;2022-10-16T09:58:17;9.20;;;2.45;;
52284;SDS011;38238;53.304;6.606;2022-10-16T10:00:53;8.50;;;3.47;;
52284;SDS011;38238;53.304;6.606;2022-10-16T10:03:26;6.13;;;2.13;;
52284;SDS011;38238;53.304;6.606;2022-10-16T10:06:00;7.32;;;3.00;;
52284;SDS011;38238;53.304;6.606;2022-10-16T10:08:30;6.97;;;2.60;;
52284;SDS011;38238;53.304;6.606;2022-10-16T10:10:56;10.18;;;2.63;;
52284;SDS011;38238;53.304;6.606;2022-10-16T10:13:22;12.32;;;3.53;;
52284;SDS011;38238;53.304;6.606;2022-10-16T10:15:51;9.30;;;2.65;;
52284;SDS011;38238;53.304;6.606;2022-10-16T10:18:18;11.60;;;3.55;;
52284;SDS011;38238;53.304;6.606;2022-10-16T10:20:56;9.52;;;2.30;;
52284;SDS011;38238;53.304;6.606;2022-10-16T10:23:24;10.18;;;2.95;;
52284;SDS011;38238;53.304;6.606;2022-10-16T10:31:23;10.52;;;2.97;;
52284;SDS011;38238;53.304;6.606;2022-10-16T10:34:32;7.82;;;3.35;;
52284;SDS011;38238;53.304;6.606;2022-10-16T10:53:40;11.88;;;2.50;;
52284;SDS011;38238;53.304;6.606;2022-10-16T11:02:10;11.38;;;2.90;;
52284;SDS011;38238;53.304;6.606;2022-10-16T11:07:22;8.80;;;2.65;;
52284;SDS011;38238;53.304;6.606;2022-10-16T11:09:58;8.45;;;2.80;;
52284;SDS011;38238;53.304;6.606;2022-10-16T11:12:49;6.97;;;2.78;;
52284;SDS011;38238;53.304;6.606;2022-10-16T11:15:30;9.15;;;2.38;;
52284;SDS011;38238;53.304;6.606;2022-10-16T11:18:06;11.90;;;3.22;;
52284;SDS011;38238;53.304;6.606;2022-10-16T11:20:52;9.73;;;2.72;;
52284;SDS011;38238;53.304;6.606;2022-10-16T11:23:31;12.05;;;3.38;;
52284;SDS011;38238;53.304;6.606;2022-10-16T11:26:09;17.20;;;4.22;;
52284;SDS011;38238;53.304;6.606;2022-10-16T11:29:04;9.57;;;2.83;;
52284;SDS011;38238;53.304;6.606;2022-10-16T11:31:38;8.38;;;2.58;;
52284;SDS011;38238;53.304;6.606;2022-10-16T11:34:12;9.73;;;2.88;;
52284;SDS011;38238;53.304;6.606;2022-10-16T11:39:30;10.93;;;2.88;;
52284;SDS011;38238;53.304;6.606;2022-10-16T11:44:33;10.40;;;2.90;;
52284;SDS011;38238;53.304;6.606;2022-10-16T11:49:40;8.63;;;2.70;;
52284;SDS011;38238;53.304;6.606;2022-10-16T11:52:13;11.43;;;3.00;;
52284;SDS011;38238;53.304;6.606;2022-10-16T11:57:38;12.52;;;3.33;;
52284;SDS011;38238;53.304;6.606;2022-10-16T12:00:24;8.55;;;3.10;;
52284;SDS011;38238;53.304;6.606;2022-10-16T12:02:57;11.02;;;3.38;;
52284;SDS011;38238;53.304;6.606;2022-10-16T12:08:26;9.20;;;3.00;;
52284;SDS011;38238;53.304;6.606;2022-10-16T12:10:52;10.35;;;3.60;;
52284;SDS011;38238;53.304;6.606;2022-10-16T12:13:34;10.57;;;3.15;;
52284;SDS011;38238;53.304;6.606;2022-10-16T12:16:05;14.15;;;3.40;;
52284;SDS011;38238;53.304;6.606;2022-10-16T12:18:44;10.77;;;3.40;;
52284;SDS011;38238;53.304;6.606;2022-10-16T12:21:11;9.25;;;3.20;;
52284;SDS011;38238;53.304;6.606;2022-10-16T12:26:23;10.85;;;3.60;;
52284;SDS011;38238;53.304;6.606;2022-10-16T12:31:46;9.35;;;2.92;;
52284;SDS011;38238;53.304;6.606;2022-10-16T12:34:19;9.98;;;3.30;;
52284;SDS011;38238;53.304;6.606;2022-10-16T12:37:09;8.50;;;2.80;;
52284;SDS011;38238;53.304;6.606;2022-10-16T12:39:49;7.97;;;2.58;;
52284;SDS011;38238;53.304;6.606;2022-10-16T12:42:22;9.95;;;3.00;;
52284;SDS011;38238;53.304;6.606;2022-10-16T12:44:51;9.95;;;3.30;;
52284;SDS011;38238;53.304;6.606;2022-10-16T12:47:21;8.45;;;3.28;;
52284;SDS011;38238;53.304;6.606;2022-10-16T12:49:56;9.40;;;3.10;;
52284;SDS011;38238;53.304;6.606;2022-10-16T12:52:26;9.88;;;2.70;;
52284;SDS011;38238;53.304;6.606;2022-10-16T12:55:04;11.75;;;2.45;;
52284;SDS011;38238;53.304;6.606;2022-10-16T13:17:04;7.07;;;2.42;;
52284;SDS011;38238;53.304;6.606;2022-10-16T13:25:48;7.47;;;3.10;;
52284;SDS011;38238;53.304;6.606;2022-10-16T13:28:21;11.43;;;3.50;;
52284;SDS011;38238;53.304;6.606;2022-10-16T13:30:53;6.43;;;2.50;;
52284;SDS011;38238;53.304;6.606;2022-10-16T13:36:02;11.45;;;2.47;;
52284;SDS011;38238;53.304;6.606;2022-10-16T13:38:32;7.18;;;2.90;;
52284;SDS011;38238;53.304;6.606;2022-10-16T13:41:03;10.23;;;2.58;;
52284;SDS011;38238;53.304;6.606;2022-10-16T13:43:38;6.68;;;2.92;;
52284;SDS011;38238;53.304;6.606;2022-10-16T13:48:38;8.32;;;2.97;;
52284;SDS011;38238;53.304;6.606;2022-10-16T13:51:14;9.15;;;2.33;;
52284;SDS011;38238;53.304;6.606;2022-10-16T13:53:41;10.77;;;2.63;;
52284;SDS011;38238;53.304;6.606;2022-10-16T13:56:12;7.65;;;2.30;;
52284;SDS011;38238;53.304;6.606;2022-10-16T13:58:40;6.10;;;2.30;;
52284;SDS011;38238;53.304;6.606;2022-10-16T14:03:47;6.88;;;2.40;;
52284;SDS011;38238;53.304;6.606;2022-10-16T14:06:15;8.95;;;2.55;;
52284;SDS011;38238;53.304;6.606;2022-10-16T14:08:44;8.68;;;3.65;;
52284;SDS011;38238;53.304;6.606;2022-10-16T14:11:13;6.40;;;2.83;;
52284;SDS011;38238;53.304;6.606;2022-10-16T14:13:49;7.90;;;2.85;;
52284;SDS011;38238;53.304;6.606;2022-10-16T14:16:37;9.80;;;2.83;;
52284;SDS011;38238;53.304;6.606;2022-10-16T14:19:05;10.23;;;3.13;;
52284;SDS011;38238;53.304;6.606;2022-10-16T14:21:32;8.88;;;2.38;;
52284;SDS011;38238;53.304;6.606;2022-10-16T14:23:59;6.95;;;2.47;;
52284;SDS011;38238;53.304;6.606;2022-10-16T14:26:40;10.52;;;2.67;;
52284;SDS011;38238;53.304;6.606;2022-10-16T14:29:11;11.07;;;3.08;;
52284;SDS011;38238;53.304;6.606;2022-10-16T14:31:39;8.80;;;2.83;;
52284;SDS011;38238;53.304;6.606;2022-10-16T14:34:22;11.20;;;3.10;;
52284;SDS011;38238;53.304;6.606;2022-10-16T14:37:14;8.20;;;2.93;;
52284;SDS011;38238;53.304;6.606;2022-10-16T14:39:49;9.32;;;2.75;;
52284;SDS011;38238;53.304;6.606;2022-10-16T14:42:16;13.15;;;2.92;;
52284;SDS011;38238;53.304;6.606;2022-10-16T14:44:44;10.63;;;2.85;;
52284;SDS011;38238;53.304;6.606;2022-10-16T14:47:14;8.32;;;2.38;;
52284;SDS011;38238;53.304;6.606;2022-10-16T14:49:47;8.88;;;2.60;;
52284;SDS011;38238;53.304;6.606;2022-10-16T14:52:13;9.57;;;2.95;;
52284;SDS011;38238;53.304;6.606;2022-10-16T14:54:39;9.10;;;2.40;;
52284;SDS011;38238;53.304;6.606;2022-10-16T14:57:12;7.72;;;2.78;;
52284;SDS011;38238;53.304;6.606;2022-10-16T14:59:45;9.35;;;2.80;;
52284;SDS011;38238;53.304;6.606;2022-10-16T15:02:34;11.00;;;2.65;;
52284;SDS011;38238;53.304;6.606;2022-10-16T15:07:43;6.85;;;2.67;;
52284;SDS011;38238;53.304;6.606;2022-10-16T15:10:10;13.27;;;2.72;;
52284;SDS011;38238;53.304;6.606;2022-10-16T15:12:36;11.55;;;2.75;;
52284;SDS011;38238;53.304;6.606;2022-10-16T15:15:05;9.82;;;2.55;;
52284;SDS011;38238;53.304;6.606;2022-10-16T15:17:56;9.07;;;2.78;;
52284;SDS011;38238;53.304;6.606;2022-10-16T15:20:26;10.10;;;3.15;;
52284;SDS011;38238;53.304;6.606;2022-10-16T15:22:52;10.95;;;2.95;;
52284;SDS011;38238;53.304;6.606;2022-10-16T15:27:53;6.87;;;2.40;;
52284;SDS011;38238;53.304;6.606;2022-10-16T15:30:19;9.15;;;2.88;;
52284;SDS011;38238;53.304;6.606;2022-10-16T15:32:45;10.88;;;5.95;;
52284;SDS011;38238;53.304;6.606;2022-10-16T15:35:11;10.50;;;4.53;;
52284;SDS011;38238;53.304;6.606;2022-10-16T15:37:36;19.58;;;11.70;;
52284;SDS011;38238;53.304;6.606;2022-10-16T15:40:02;12.18;;;8.82;;
52284;SDS011;38238;53.304;6.606;2022-10-16T15:42:28;9.02;;;6.30;;
52284;SDS011;38238;53.304;6.606;2022-10-16T15:44:54;10.80;;;3.92;;
52284;SDS011;38238;53.304;6.606;2022-10-16T15:47:20;7.80;;;3.95;;
52284;SDS011;38238;53.304;6.606;2022-10-16T15:49:45;9.75;;;3.63;;
52284;SDS011;38238;53.304;6.606;2022-10-16T15:52:11;9.93;;;4.22;;
52284;SDS011;38238;53.304;6.606;2022-10-16T15:54:37;13.75;;;4.65;;
52284;SDS011;38238;53.304;6.606;2022-10-16T15:57:02;8.70;;;3.70;;
52284;SDS011;38238;53.304;6.606;2022-10-16T15:59:28;11.52;;;4.28;;
52284;SDS011;38238;53.304;6.606;2022-10-16T16:01:54;9.63;;;3.60;;
52284;SDS011;38238;53.304;6.606;2022-10-16T16:04:19;7.97;;;2.50;;
52284;SDS011;38238;53.304;6.606;2022-10-16T16:06:45;10.32;;;3.05;;
52284;SDS011;38238;53.304;6.606;2022-10-16T16:09:11;11.77;;;3.78;;
52284;SDS011;38238;53.304;6.606;2022-10-16T16:11:39;11.43;;;3.60;;
52284;SDS011;38238;53.304;6.606;2022-10-16T16:14:12;12.32;;;3.40;;
52284;SDS011;38238;53.304;6.606;2022-10-16T16:16:38;8.80;;;3.00;;
52284;SDS011;38238;53.304;6.606;2022-10-16T16:19:04;10.38;;;3.40;;
52284;SDS011;38238;53.304;6.606;2022-10-16T16:21:31;9.77;;;3.25;;
52284;SDS011;38238;53.304;6.606;2022-10-16T16:23:58;8.43;;;3.03;;
52284;SDS011;38238;53.304;6.606;2022-10-16T16:26:27;7.65;;;3.00;;
52284;SDS011;38238;53.304;6.606;2022-10-16T16:28:59;9.82;;;3.10;;
52284;SDS011;38238;53.304;6.606;2022-10-16T16:31:25;10.45;;;3.10;;
52284;SDS011;38238;53.304;6.606;2022-10-16T16:33:52;10.93;;;3.22;;
52284;SDS011;38238;53.304;6.606;2022-10-16T16:36:18;11.50;;;3.40;;
52284;SDS011;38238;53.304;6.606;2022-10-16T16:38:45;12.95;;;3.40;;
52284;SDS011;38238;53.304;6.606;2022-10-16T16:41:12;9.60;;;3.08;;
52284;SDS011;38238;53.304;6.606;2022-10-16T16:43:38;9.27;;;3.05;;
52284;SDS011;38238;53.304;6.606;2022-10-16T16:46:04;7.57;;;3.00;;
52284;SDS011;38238;53.304;6.606;2022-10-16T16:48:30;9.88;;;3.45;;
52284;SDS011;38238;53.304;6.606;2022-10-16T16:50:56;8.40;;;3.15;;
52284;SDS011;38238;53.304;6.606;2022-10-16T16:53:27;12.32;;;3.38;;
52284;SDS011;38238;53.304;6.606;2022-10-16T16:55:53;12.98;;;3.53;;
52284;SDS011;38238;53.304;6.606;2022-10-16T16:58:18;9.93;;;3.38;;
52284;SDS011;38238;53.304;6.606;2022-10-16T17:00:44;13.52;;;3.55;;
52284;SDS011;38238;53.304;6.606;2022-10-16T17:03:11;9.35;;;3.65;;